Time;durP1;ratioP1;P1;durP2;ratioP2;P2;SDS_P1;SDS_P2;PMS_P1;PMS_P2;Temp;Humidity;BMP_temperature;BMP_pressure;BME280_temperature;BME280_humidity;BME280_pressure;Samples;Min_cycle;Max_cycle;Signal;HPM_P1;HPM_P2
2022/12/16 00:01:12;;;;;;;58.08;26.50;;;;;;;-1.74;98.33;101046.81;5046525;28;20563;-43
2022/12/16 00:03:41;;;;;;;69.07;28.27;;;;;;;-1.75;98.54;101039.78;5038818;28;20614;-42
2022/12/16 00:06:09;;;;;;;67.05;29.40;;;;;;;-1.77;98.42;101041.91;5020934;28;20172;-42
2022/12/16 00:08:38;;;;;;;69.85;30.45;;;;;;;-1.78;98.48;101043.00;5048442;28;20048;-42
2022/12/16 00:11:06;;;;;;;71.35;31.20;;;;;;;-1.81;98.54;101035.38;5048015;28;20127;-42
2022/12/16 00:13:35;;;;;;;64.85;27.50;;;;;;;-1.83;98.47;101032.88;5048725;28;20045;-43
2022/12/16 00:16:07;;;;;;;69.25;27.70;;;;;;;-1.83;98.81;101031.28;5048257;28;20394;-42
2022/12/16 00:18:35;;;;;;;71.85;26.98;;;;;;;-1.85;98.66;101035.03;5047118;28;20045;-41
2022/12/16 00:21:02;;;;;;;71.78;26.83;;;;;;;-1.81;98.84;101031.81;5048304;28;20304;-42
2022/12/16 00:23:30;;;;;;;100.45;37.70;;;;;;;-1.79;98.82;101037.81;5038563;28;20052;-42
2022/12/16 00:25:57;;;;;;;71.78;28.58;;;;;;;-1.81;98.78;101027.22;5047358;28;20049;-43
2022/12/16 00:28:25;;;;;;;68.32;25.48;;;;;;;-1.81;98.82;101034.53;5047153;28;20056;-44
2022/12/16 00:30:54;;;;;;;60.10;29.42;;;;;;;-1.80;98.83;101036.19;5048138;28;20040;-42
2022/12/16 00:33:22;;;;;;;56.00;27.15;;;;;;;-1.78;98.98;101029.44;5047961;28;20055;-43
2022/12/16 00:35:50;;;;;;;74.90;26.35;;;;;;;-1.77;99.01;101024.81;5047810;28;20148;-43
2022/12/16 00:38:17;;;;;;;67.78;25.63;;;;;;;-1.76;99.02;101023.72;5047664;28;20067;-42
2022/12/16 00:40:44;;;;;;;61.70;25.85;;;;;;;-1.76;99.00;101031.88;5038780;28;20274;-43
2022/12/16 00:43:11;;;;;;;79.00;28.48;;;;;;;-1.76;99.04;101023.72;5052819;28;20048;-42
2022/12/16 00:45:38;;;;;;;62.90;26.42;;;;;;;-1.75;99.08;101028.09;5047737;28;21150;-43
2022/12/16 00:48:11;;;;;;;77.28;28.35;;;;;;;-1.75;98.81;101028.91;5047695;28;20089;-44
2022/12/16 00:50:38;;;;;;;56.67;26.10;;;;;;;-1.74;99.19;101024.28;5047551;28;20057;-49
2022/12/16 00:53:05;;;;;;;60.88;25.42;;;;;;;-1.75;99.10;101026.19;5047993;28;20045;-44
2022/12/16 00:55:31;;;;;;;61.03;23.63;;;;;;;-1.75;99.19;101017.25;5047658;28;20045;-50
2022/12/16 00:57:58;;;;;;;61.47;24.90;;;;;;;-1.76;99.21;101027.25;5045446;28;20502;-44
2022/12/16 01:00:25;;;;;;;56.50;24.27;;;;;;;-1.75;99.11;101025.38;5047930;28;20612;-42
2022/12/16 01:02:52;;;;;;;54.03;23.10;;;;;;;-1.76;99.23;101029.97;5040130;28;20063;-41
2022/12/16 01:05:20;;;;;;;63.20;25.08;;;;;;;-1.76;99.18;101021.84;5048353;28;20179;-42
2022/12/16 01:07:47;;;;;;;56.85;24.10;;;;;;;-1.75;99.33;101022.66;5047402;28;20140;-44
2022/12/16 01:10:14;;;;;;;52.65;23.73;;;;;;;-1.74;99.32;101021.56;5047886;28;20045;-42
2022/12/16 01:12:41;;;;;;;69.50;25.08;;;;;;;-1.74;99.31;101030.53;5047292;28;20053;-42
2022/12/16 01:15:11;;;;;;;65.38;26.15;;;;;;;-1.76;99.22;101031.88;5047897;28;20041;-42
2022/12/16 01:17:38;;;;;;;59.55;23.80;;;;;;;-1.77;99.16;101027.53;5046387;28;20048;-42
2022/12/16 01:20:06;;;;;;;65.05;23.20;;;;;;;-1.81;98.97;101023.69;5047280;28;20045;-41
2022/12/16 01:22:34;;;;;;;52.20;21.02;;;;;;;-1.81;99.25;101023.69;5045810;28;20447;-41
2022/12/16 01:25:02;;;;;;;56.95;24.80;;;;;;;-1.85;99.48;101029.63;5046687;28;20061;-42
2022/12/16 01:27:29;;;;;;;45.58;23.42;;;;;;;-1.85;99.39;101023.38;5045297;28;20403;-42
2022/12/16 01:29:55;;;;;;;46.85;23.55;;;;;;;-1.84;99.45;101025.03;5045199;28;20048;-42
2022/12/16 01:32:22;;;;;;;56.60;22.45;;;;;;;-1.85;99.40;101024.19;5046286;28;20048;-47
2022/12/16 01:34:50;;;;;;;57.10;21.35;;;;;;;-1.85;99.54;101037.75;5044864;28;20099;-41
2022/12/16 01:37:22;;;;;;;54.88;21.95;;;;;;;-1.86;99.53;101029.88;5043457;28;20071;-49
2022/12/16 01:39:49;;;;;;;54.15;20.60;;;;;;;-1.86;99.50;101025.28;5045463;28;20052;-44
2022/12/16 01:42:21;;;;;;;46.85;20.70;;;;;;;-1.88;99.40;101026.63;5032250;28;20140;-46
2022/12/16 01:44:49;;;;;;;50.65;21.35;;;;;;;-1.88;99.66;101024.69;5049867;28;20045;-42
2022/12/16 01:47:26;;;;;;;52.08;22.13;;;;;;;-1.92;99.48;101026.31;5041788;28;20088;-42
2022/12/16 01:50:03;;;;;;;48.55;21.10;;;;;;;-1.90;99.28;101023.31;5039558;28;20497;-43
2022/12/16 01:52:35;;;;;;;49.67;20.58;;;;;;;-1.90;99.56;101032.28;5046502;28;20487;-46
2022/12/16 01:55:30;;;;;;;46.40;20.05;;;;;;;-1.94;99.54;101031.19;5046823;28;20044;-42
2022/12/16 01:58:08;;;;;;;42.63;21.20;;;;;;;-1.95;99.49;101028.69;5026153;28;20052;-41
2022/12/16 02:00:37;;;;;;;38.55;18.83;;;;;;;-1.95;99.53;101028.69;5045262;28;20045;-42
2022/12/16 02:03:05;;;;;;;48.90;21.67;;;;;;;-1.98;99.68;101024.59;5057118;28;20168;-42
2022/12/16 02:05:37;;;;;;;44.10;21.55;;;;;;;-1.98;99.53;101023.78;5039063;28;20075;-42
2022/12/16 02:08:21;;;;;;;43.33;20.38;;;;;;;-1.99;99.61;101022.97;5045399;28;20049;-45
2022/12/16 02:11:20;;;;;;;42.90;18.92;;;;;;;-1.98;99.50;101035.47;5046252;28;20087;-42
2022/12/16 02:14:11;;;;;;;50.42;21.08;;;;;;;-1.98;99.49;101030.03;5028975;28;20560;-43
2022/12/16 02:16:54;;;;;;;46.80;18.03;;;;;;;-2.00;99.58;101037.63;5046545;28;20056;-43
2022/12/16 02:19:39;;;;;;;42.45;18.42;;;;;;;-2.02;99.65;101036.22;5046568;28;20049;-42
2022/12/16 02:22:11;;;;;;;48.25;19.17;;;;;;;-2.04;99.48;101031.03;5035259;28;20052;-48
2022/12/16 02:24:57;;;;;;;43.88;20.95;;;;;;;-2.06;99.53;101032.38;5046520;28;20053;-42
2022/12/16 02:27:26;;;;;;;57.65;22.63;;;;;;;-2.06;99.51;101038.63;5044300;28;20052;-47
2022/12/16 02:29:59;;;;;;;46.35;19.77;;;;;;;-2.08;99.65;101032.63;5042479;28;20426;-43
2022/12/16 02:32:48;;;;;;;48.15;19.48;;;;;;;-2.08;99.58;101029.09;5046312;28;20045;-41
2022/12/16 02:35:30;;;;;;;51.70;21.25;;;;;;;-2.08;99.48;101029.94;5007000;28;20049;-42
2022/12/16 02:38:18;;;;;;;45.05;19.38;;;;;;;-2.09;99.45;101027.47;5044051;28;21130;-43
2022/12/16 02:40:53;;;;;;;50.50;19.80;;;;;;;-2.10;99.56;101023.94;5034244;28;20136;-42
2022/12/16 02:43:48;;;;;;;47.67;19.20;;;;;;;-2.09;99.44;101022.06;5053543;28;20055;-47
2022/12/16 02:46:17;;;;;;;54.25;21.40;;;;;;;-2.09;99.58;101022.06;5048589;28;20665;-49
2022/12/16 02:48:43;;;;;;;43.78;20.33;;;;;;;-2.11;99.54;101025.00;5050210;28;20143;-52
2022/12/16 02:51:10;;;;;;;41.35;17.92;;;;;;;-2.11;99.29;101025.00;5049715;28;20045;-42
2022/12/16 02:53:40;;;;;;;38.67;16.63;;;;;;;-2.12;99.88;101028.78;5049709;28;20293;-43
2022/12/16 02:56:10;;;;;;;49.60;19.83;;;;;;;-2.11;99.77;101033.16;5043025;28;20049;-42
2022/12/16 02:58:49;;;;;;;39.03;16.27;;;;;;;-2.12;99.73;101031.50;5049712;28;20080;-44
2022/12/16 03:01:26;;;;;;;35.78;16.90;;;;;;;-2.12;99.65;101019.84;5063670;23;20511;-43
2022/12/16 03:04:10;;;;;;;36.05;17.80;;;;;;;-2.12;99.51;101023.34;5040542;28;20049;-44
2022/12/16 03:06:41;;;;;;;31.83;17.90;;;;;;;-2.13;99.67;101015.50;5044719;28;20167;-43
2022/12/16 03:09:11;;;;;;;40.22;16.00;;;;;;;-2.15;99.64;101007.63;5024877;28;20049;-43
2022/12/16 03:11:42;;;;;;;33.78;15.98;;;;;;;-2.14;99.64;101003.81;5044223;28;20384;-42
2022/12/16 03:14:14;;;;;;;29.77;15.20;;;;;;;-2.12;99.91;101011.72;5046511;28;20052;-43
2022/12/16 03:16:43;;;;;;;39.25;16.02;;;;;;;-2.13;99.88;101010.88;5043259;28;20053;-50
2022/12/16 03:19:11;;;;;;;43.58;18.25;;;;;;;-2.14;99.77;101020.09;5048161;28;20084;-43
2022/12/16 03:21:53;;;;;;;32.50;15.70;;;;;;;-2.15;99.46;101007.63;5049231;28;20549;-48
2022/12/16 03:24:20;;;;;;;34.03;16.00;;;;;;;-2.17;99.56;101007.03;5049327;28;20080;-41
2022/12/16 03:27:07;;;;;;;32.83;13.50;;;;;;;-2.18;99.68;101002.69;5049033;28;20049;-43
2022/12/16 03:30:00;;;;;;;34.28;14.32;;;;;;;-2.18;99.91;101002.69;5047155;28;20403;-46
2022/12/16 03:32:27;;;;;;;;;;;;;;;-2.18;99.82;100993.75;5039085;28;20399;-43
2022/12/16 03:35:05;;;;;;;34.67;12.88;;;;;;;-2.20;99.78;100998.59;5048755;28;19948;-43
2022/12/16 03:37:36;;;;;;;28.65;13.68;;;;;;;-2.22;99.66;100996.13;5049094;28;20045;-42
2022/12/16 03:40:06;;;;;;;30.92;13.60;;;;;;;-2.22;99.80;101006.97;5049389;28;20064;-42
2022/12/16 03:42:35;;;;;;;29.40;12.50;;;;;;;-2.21;99.99;101008.63;5046877;28;20490;-42
2022/12/16 03:45:04;;;;;;;31.05;12.18;;;;;;;-2.19;100.00;101001.06;5042639;28;20056;-43
2022/12/16 03:47:30;;;;;;;29.67;12.10;;;;;;;-2.19;100.00;100994.81;5042153;28;20135;-43
2022/12/16 03:49:58;;;;;;;33.30;11.75;;;;;;;-2.17;100.00;100993.47;5043558;28;20056;-42
2022/12/16 03:52:24;;;;;;;37.78;12.20;;;;;;;-2.17;99.97;100993.47;5044365;28;20059;-43
2022/12/16 03:54:51;;;;;;;40.40;13.15;;;;;;;-2.15;100.00;100990.53;5044822;28;20040;-43
2022/12/16 03:57:18;;;;;;;54.20;13.68;;;;;;;-2.14;100.00;101009.25;5043803;28;20099;-46
2022/12/16 03:59:44;;;;;;;57.33;12.45;;;;;;;-2.11;100.00;101000.59;5042692;28;20060;-42
2022/12/16 04:02:11;;;;;;;39.20;12.98;;;;;;;-2.12;100.00;100995.44;5041371;28;20076;-43
2022/12/16 04:04:38;;;;;;;40.97;13.57;;;;;;;-2.10;100.00;100994.13;5032143;28;20045;-43
2022/12/16 04:07:21;;;;;;;61.60;14.30;;;;;;;-2.07;100.00;100990.91;5034422;28;20143;-50
2022/12/16 04:09:48;;;;;;;;;;;;;;;-2.04;100.00;100998.50;5034555;28;20768;-42
2022/12/16 04:26:08;;;;;;;37.13;14.55;;;;;;;-1.96;100.00;100997.25;5025313;28;20095;-43
2022/12/16 04:28:35;;;;;;;44.72;15.88;;;;;;;-1.96;100.00;100999.94;5043134;28;20045;-44
2022/12/16 04:31:02;;;;;;;35.28;13.40;;;;;;;-1.96;100.00;101000.75;5036894;28;20072;-48
